RYR455C EGCC-EIKY
Flight info
| Callsign | RYR455C |
|---|---|
| Flight time | 0h 56m |
| Altitude | 36000 |
| Route | ASMIM L975 WAL L10 PENIL M144 BAGSO DCT KER |
| Aircraft | B38M/M-SADE3FGILRWY/SB1 |
Departure
| Time | 2026-04-22 08:16 |
|---|---|
| Airport | Manchester Airport (EGCC) |
Arrival
| Time | 2026-04-22 09:12 |
|---|---|
| Airport | Kerry Airport (EIKY) |
| Time | Latitude | Longitude | Altitude | Speed | Heading |
|---|---|---|---|---|---|
| 2026-04-22 07:56 | 53.36149 | -2.26676 | 258 ft | 0 kts | 325° |
| 2026-04-22 08:07 | 53.36146 | -2.26672 | 258 ft | 3 kts | 325° |
| 2026-04-22 08:07 | 53.36125 | -2.26647 | 258 ft | 4 kts | 324° |
| 2026-04-22 08:07 | 53.36105 | -2.26618 | 258 ft | 4 kts | 307° |
| 2026-04-22 08:08 | 53.36096 | -2.26582 | 258 ft | 4 kts | 257° |
| 2026-04-22 08:08 | 53.36105 | -2.26556 | 258 ft | 4 kts | 231° |
| 2026-04-22 08:08 | 53.36114 | -2.26538 | 258 ft | 1 kts | 231° |
| 2026-04-22 08:11 | 53.36111 | -2.26544 | 258 ft | 2 kts | 231° |
| 2026-04-22 08:11 | 53.36090 | -2.26591 | 258 ft | 8 kts | 236° |
| 2026-04-22 08:11 | 53.36051 | -2.26700 | 258 ft | 13 kts | 229° |
| 2026-04-22 08:12 | 53.35983 | -2.26824 | 258 ft | 16 kts | 226° |
| 2026-04-22 08:12 | 53.35889 | -2.26862 | 258 ft | 15 kts | 229° |
| 2026-04-22 08:12 | 53.35826 | -2.27011 | 258 ft | 17 kts | 242° |
| 2026-04-22 08:12 | 53.35749 | -2.27188 | 257 ft | 20 kts | 231° |
| 2026-04-22 08:13 | 53.35653 | -2.27387 | 257 ft | 24 kts | 231° |
| 2026-04-22 08:13 | 53.35542 | -2.27614 | 255 ft | 27 kts | 231° |
| 2026-04-22 08:13 | 53.35456 | -2.27884 | 249 ft | 26 kts | 263° |
| 2026-04-22 08:13 | 53.35330 | -2.28126 | 242 ft | 31 kts | 224° |
| 2026-04-22 08:14 | 53.35176 | -2.28419 | 235 ft | 36 kts | 230° |
| 2026-04-22 08:14 | 53.35002 | -2.28764 | 223 ft | 39 kts | 227° |
| 2026-04-22 08:14 | 53.34822 | -2.29064 | 219 ft | 26 kts | 202° |
| 2026-04-22 08:14 | 53.34679 | -2.28995 | 210 ft | 19 kts | 139° |
| 2026-04-22 08:15 | 53.34685 | -2.28924 | 214 ft | 1 kts | 50° |
| 2026-04-22 08:15 | 53.34733 | -2.28826 | 214 ft | 41 kts | 51° |
| 2026-04-22 08:15 | 53.35095 | -2.28075 | 237 ft | 123 kts | 51° |
| 2026-04-22 08:15 | 53.35760 | -2.26700 | 437 ft | 174 kts | 53° |
| 2026-04-22 08:16 | 53.36567 | -2.25001 | 1316 ft | 190 kts | 53° |
| 2026-04-22 08:16 | 53.37366 | -2.23359 | 2640 ft | 187 kts | 56° |
| 2026-04-22 08:16 | 53.38287 | -2.21628 | 3169 ft | 219 kts | 44° |
| 2026-04-22 08:16 | 53.39766 | -2.20669 | 4058 ft | 241 kts | 9° |
| 2026-04-22 08:17 | 53.41487 | -2.21347 | 4737 ft | 273 kts | 333° |
| 2026-04-22 08:17 | 53.42836 | -2.23657 | 4971 ft | 285 kts | 300° |
| 2026-04-22 08:17 | 53.43483 | -2.26822 | 5157 ft | 291 kts | 284° |
| 2026-04-22 08:17 | 53.44075 | -2.30092 | 5330 ft | 293 kts | 288° |
| 2026-04-22 08:18 | 53.44778 | -2.33300 | 5416 ft | 293 kts | 292° |
| 2026-04-22 08:18 | 53.45584 | -2.36443 | 5469 ft | 295 kts | 294° |
| 2026-04-22 08:18 | 53.46453 | -2.39586 | 6280 ft | 295 kts | 294° |
| 2026-04-22 08:18 | 53.46937 | -2.42875 | 7411 ft | 291 kts | 268° |
| 2026-04-22 08:19 | 53.46672 | -2.46241 | 8369 ft | 294 kts | 256° |
| 2026-04-22 08:19 | 53.46308 | -2.49656 | 9339 ft | 299 kts | 257° |
| 2026-04-22 08:19 | 53.46065 | -2.51940 | 9982 ft | 301 kts | 257° |
| 2026-04-22 08:19 | 53.45688 | -2.55425 | 10840 ft | 309 kts | 257° |
| 2026-04-22 08:20 | 53.45288 | -2.59086 | 11343 ft | 328 kts | 257° |
| 2026-04-22 08:20 | 53.44864 | -2.62938 | 11918 ft | 343 kts | 257° |
| 2026-04-22 08:20 | 53.44424 | -2.66929 | 12679 ft | 349 kts | 257° |
| 2026-04-22 08:20 | 53.43981 | -2.70942 | 13610 ft | 352 kts | 257° |
| 2026-04-22 08:21 | 53.43530 | -2.75005 | 14464 ft | 356 kts | 257° |
| 2026-04-22 08:21 | 53.43074 | -2.79107 | 15263 ft | 359 kts | 257° |
| 2026-04-22 08:21 | 53.42613 | -2.83240 | 16088 ft | 362 kts | 257° |
| 2026-04-22 08:21 | 53.42147 | -2.87401 | 16885 ft | 365 kts | 257° |
| 2026-04-22 08:22 | 53.41675 | -2.91600 | 17658 ft | 368 kts | 257° |
| 2026-04-22 08:22 | 53.41198 | -2.95836 | 18436 ft | 371 kts | 257° |
| 2026-04-22 08:22 | 53.40716 | -3.00095 | 19146 ft | 373 kts | 258° |
| 2026-04-22 08:22 | 53.40231 | -3.04372 | 19851 ft | 373 kts | 258° |
| 2026-04-22 08:23 | 53.39782 | -3.08641 | 20573 ft | 373 kts | 265° |
| 2026-04-22 08:23 | 53.39954 | -3.12954 | 21290 ft | 372 kts | 284° |
| 2026-04-22 08:23 | 53.40941 | -3.16942 | 21991 ft | 373 kts | 301° |
| 2026-04-22 08:23 | 53.42378 | -3.20585 | 22617 ft | 375 kts | 303° |
| 2026-04-22 08:24 | 53.43857 | -3.24208 | 23214 ft | 378 kts | 304° |
| 2026-04-22 08:24 | 53.45363 | -3.27832 | 23827 ft | 380 kts | 304° |
| 2026-04-22 08:24 | 53.46893 | -3.31476 | 24348 ft | 383 kts | 304° |
| 2026-04-22 08:24 | 53.48434 | -3.35124 | 24830 ft | 385 kts | 304° |
| 2026-04-22 08:25 | 53.49992 | -3.38806 | 25314 ft | 387 kts | 304° |
| 2026-04-22 08:25 | 53.51535 | -3.42454 | 25782 ft | 389 kts | 304° |
| 2026-04-22 08:25 | 53.53123 | -3.46210 | 26264 ft | 391 kts | 304° |
| 2026-04-22 08:25 | 53.54701 | -3.49951 | 26731 ft | 393 kts | 304° |
| 2026-04-22 08:26 | 53.56282 | -3.53702 | 27203 ft | 395 kts | 304° |
| 2026-04-22 08:26 | 53.57874 | -3.57485 | 27637 ft | 397 kts | 304° |
| 2026-04-22 08:26 | 53.59472 | -3.61288 | 28065 ft | 399 kts | 304° |
| 2026-04-22 08:26 | 53.60906 | -3.65273 | 28481 ft | 400 kts | 292° |
| 2026-04-22 08:27 | 53.61598 | -3.69803 | 28914 ft | 402 kts | 277° |
| 2026-04-22 08:27 | 53.61857 | -3.74505 | 29285 ft | 405 kts | 276° |
| 2026-04-22 08:27 | 53.62098 | -3.79243 | 29677 ft | 407 kts | 276° |
| 2026-04-22 08:27 | 53.62319 | -3.84012 | 30084 ft | 409 kts | 275° |
| 2026-04-22 08:28 | 53.62525 | -3.88808 | 30463 ft | 411 kts | 275° |
| 2026-04-22 08:28 | 53.62723 | -3.93622 | 30780 ft | 413 kts | 275° |
| 2026-04-22 08:28 | 53.62918 | -3.98470 | 31099 ft | 415 kts | 275° |
| 2026-04-22 08:28 | 53.63111 | -4.03329 | 31413 ft | 418 kts | 275° |
| 2026-04-22 08:29 | 53.63304 | -4.08227 | 31719 ft | 419 kts | 275° |
| 2026-04-22 08:29 | 53.63492 | -4.13078 | 32011 ft | 422 kts | 275° |
| 2026-04-22 08:29 | 53.63682 | -4.18026 | 32316 ft | 424 kts | 274° |
| 2026-04-22 08:29 | 53.63871 | -4.22984 | 32638 ft | 425 kts | 274° |
| 2026-04-22 08:30 | 53.64057 | -4.27949 | 33044 ft | 424 kts | 274° |
| 2026-04-22 08:30 | 53.64242 | -4.32903 | 33468 ft | 423 kts | 274° |
| 2026-04-22 08:30 | 53.64423 | -4.37839 | 33895 ft | 422 kts | 274° |
| 2026-04-22 08:30 | 53.64602 | -4.42761 | 34315 ft | 421 kts | 274° |
| 2026-04-22 08:31 | 53.64779 | -4.47676 | 34664 ft | 420 kts | 274° |
| 2026-04-22 08:31 | 53.64954 | -4.52600 | 34966 ft | 420 kts | 274° |
| 2026-04-22 08:31 | 53.65298 | -4.62452 | 35514 ft | 421 kts | 274° |
| 2026-04-22 08:32 | 53.65467 | -4.67382 | 35800 ft | 422 kts | 274° |
| 2026-04-22 08:32 | 53.65634 | -4.72320 | 36071 ft | 422 kts | 273° |
| 2026-04-22 08:32 | 53.65799 | -4.77268 | 36331 ft | 423 kts | 273° |
| 2026-04-22 08:33 | 53.66128 | -4.87209 | 36397 ft | 424 kts | 273° |
| 2026-04-22 08:33 | 53.66449 | -4.97112 | 36396 ft | 423 kts | 273° |
| 2026-04-22 08:34 | 53.66762 | -5.07027 | 36399 ft | 423 kts | 273° |
| 2026-04-22 08:34 | 53.67065 | -5.16938 | 36392 ft | 423 kts | 272° |
| 2026-04-22 08:35 | 53.67354 | -5.26842 | 36392 ft | 423 kts | 272° |
| 2026-04-22 08:35 | 53.67636 | -5.36757 | 36394 ft | 423 kts | 272° |
| 2026-04-22 08:36 | 53.67814 | -5.46676 | 36379 ft | 423 kts | 264° |
| 2026-04-22 08:36 | 53.67135 | -5.51471 | 36388 ft | 423 kts | 248° |
| 2026-04-22 08:36 | 53.65808 | -5.55916 | 36391 ft | 425 kts | 243° |
| 2026-04-22 08:37 | 53.62932 | -5.64631 | 36381 ft | 425 kts | 242° |
| 2026-04-22 08:37 | 53.59981 | -5.73257 | 36382 ft | 425 kts | 241° |
| 2026-04-22 08:38 | 53.57020 | -5.81803 | 36376 ft | 425 kts | 241° |
| 2026-04-22 08:38 | 53.54031 | -5.90391 | 36378 ft | 426 kts | 241° |
| 2026-04-22 08:39 | 53.51031 | -5.98981 | 36376 ft | 426 kts | 241° |
| 2026-04-22 08:39 | 53.48021 | -6.07569 | 36372 ft | 427 kts | 240° |
| 2026-04-22 08:40 | 53.45002 | -6.16155 | 36371 ft | 427 kts | 240° |
| 2026-04-22 08:40 | 53.41972 | -6.24739 | 36371 ft | 428 kts | 240° |
| 2026-04-22 08:41 | 53.38927 | -6.33335 | 36374 ft | 429 kts | 240° |
| 2026-04-22 08:41 | 53.35872 | -6.41934 | 36347 ft | 430 kts | 240° |
| 2026-04-22 08:42 | 53.32807 | -6.50529 | 36347 ft | 430 kts | 240° |
| 2026-04-22 08:42 | 53.29736 | -6.59112 | 36344 ft | 431 kts | 240° |
| 2026-04-22 08:43 | 53.26680 | -6.67625 | 35969 ft | 418 kts | 240° |
| 2026-04-22 08:43 | 53.25209 | -6.71708 | 35915 ft | 403 kts | 240° |
| 2026-04-22 08:43 | 53.23787 | -6.75653 | 35928 ft | 395 kts | 240° |
| 2026-04-22 08:44 | 53.20911 | -6.83611 | 35914 ft | 407 kts | 239° |
| 2026-04-22 08:44 | 53.17926 | -6.91846 | 35506 ft | 422 kts | 239° |
| 2026-04-22 08:44 | 53.16409 | -6.96020 | 35019 ft | 420 kts | 239° |
| 2026-04-22 08:45 | 53.14900 | -7.00166 | 34513 ft | 416 kts | 239° |
| 2026-04-22 08:45 | 53.13403 | -7.04268 | 33946 ft | 414 kts | 239° |
| 2026-04-22 08:45 | 53.11913 | -7.08347 | 33397 ft | 410 kts | 239° |
| 2026-04-22 08:45 | 53.10434 | -7.12388 | 32911 ft | 406 kts | 239° |
| 2026-04-22 08:46 | 53.08971 | -7.16380 | 32428 ft | 402 kts | 239° |
| 2026-04-22 08:46 | 53.07523 | -7.20326 | 31961 ft | 398 kts | 239° |
| 2026-04-22 08:46 | 53.06084 | -7.24241 | 31488 ft | 395 kts | 239° |
| 2026-04-22 08:46 | 53.04659 | -7.28111 | 31024 ft | 391 kts | 238° |
| 2026-04-22 08:47 | 53.03241 | -7.31958 | 30559 ft | 389 kts | 238° |
| 2026-04-22 08:47 | 53.01834 | -7.35768 | 30051 ft | 386 kts | 238° |
| 2026-04-22 08:47 | 53.00435 | -7.39549 | 29551 ft | 383 kts | 238° |
| 2026-04-22 08:47 | 52.99049 | -7.43291 | 29101 ft | 379 kts | 238° |
| 2026-04-22 08:48 | 52.97671 | -7.47003 | 28656 ft | 375 kts | 238° |
| 2026-04-22 08:48 | 52.96312 | -7.50663 | 28234 ft | 371 kts | 238° |
| 2026-04-22 08:48 | 52.94963 | -7.54289 | 27800 ft | 368 kts | 238° |
| 2026-04-22 08:48 | 52.93641 | -7.57837 | 27382 ft | 365 kts | 237° |
| 2026-04-22 08:49 | 52.92313 | -7.61397 | 26979 ft | 362 kts | 237° |
| 2026-04-22 08:49 | 52.90990 | -7.64937 | 26565 ft | 360 kts | 237° |
| 2026-04-22 08:49 | 52.89675 | -7.68451 | 26169 ft | 358 kts | 237° |
| 2026-04-22 08:49 | 52.88369 | -7.71937 | 25763 ft | 357 kts | 237° |
| 2026-04-22 08:50 | 52.87051 | -7.75450 | 25363 ft | 362 kts | 237° |
| 2026-04-22 08:50 | 52.85714 | -7.79009 | 24958 ft | 364 kts | 236° |
| 2026-04-22 08:50 | 52.84377 | -7.82562 | 24566 ft | 363 kts | 236° |
| 2026-04-22 08:50 | 52.83042 | -7.86106 | 24187 ft | 362 kts | 236° |
| 2026-04-22 08:51 | 52.81715 | -7.89624 | 23789 ft | 360 kts | 236° |
| 2026-04-22 08:51 | 52.80388 | -7.93133 | 23342 ft | 359 kts | 236° |
| 2026-04-22 08:51 | 52.79070 | -7.96617 | 22945 ft | 356 kts | 235° |
| 2026-04-22 08:51 | 52.77762 | -8.00071 | 22578 ft | 353 kts | 235° |
| 2026-04-22 08:52 | 52.76465 | -8.03491 | 22210 ft | 350 kts | 235° |
| 2026-04-22 08:52 | 52.75180 | -8.06872 | 21847 ft | 346 kts | 234° |
| 2026-04-22 08:52 | 52.73906 | -8.10221 | 21503 ft | 343 kts | 234° |
| 2026-04-22 08:52 | 52.72641 | -8.13541 | 21138 ft | 341 kts | 234° |
| 2026-04-22 08:53 | 52.71384 | -8.16838 | 20799 ft | 338 kts | 234° |
| 2026-04-22 08:53 | 52.70134 | -8.20109 | 20445 ft | 336 kts | 233° |
| 2026-04-22 08:53 | 52.68891 | -8.23362 | 20088 ft | 334 kts | 233° |
| 2026-04-22 08:53 | 52.67653 | -8.26596 | 19762 ft | 333 kts | 234° |
| 2026-04-22 08:54 | 52.66406 | -8.29847 | 19394 ft | 338 kts | 233° |
| 2026-04-22 08:54 | 52.65139 | -8.33146 | 19045 ft | 342 kts | 233° |
| 2026-04-22 08:54 | 52.63864 | -8.36464 | 18689 ft | 342 kts | 233° |
| 2026-04-22 08:54 | 52.62592 | -8.39769 | 18308 ft | 342 kts | 233° |
| 2026-04-22 08:55 | 52.61319 | -8.43072 | 17922 ft | 341 kts | 233° |
| 2026-04-22 08:55 | 52.60055 | -8.46349 | 17550 ft | 338 kts | 233° |
| 2026-04-22 08:55 | 52.58798 | -8.49601 | 17198 ft | 335 kts | 233° |
| 2026-04-22 08:55 | 52.57553 | -8.52819 | 16861 ft | 332 kts | 233° |
| 2026-04-22 08:56 | 52.56316 | -8.56013 | 16509 ft | 330 kts | 233° |
| 2026-04-22 08:56 | 52.55085 | -8.59186 | 16165 ft | 328 kts | 233° |
| 2026-04-22 08:56 | 52.53876 | -8.62298 | 15824 ft | 327 kts | 233° |
| 2026-04-22 08:56 | 52.52643 | -8.65471 | 15474 ft | 325 kts | 233° |
| 2026-04-22 08:57 | 52.51434 | -8.68572 | 15130 ft | 329 kts | 233° |
| 2026-04-22 08:57 | 52.50192 | -8.71758 | 14775 ft | 333 kts | 233° |
| 2026-04-22 08:57 | 52.48926 | -8.75004 | 14416 ft | 335 kts | 233° |
| 2026-04-22 08:57 | 52.47688 | -8.78171 | 14070 ft | 333 kts | 233° |
| 2026-04-22 08:58 | 52.46440 | -8.81366 | 13686 ft | 332 kts | 233° |
| 2026-04-22 08:58 | 52.45189 | -8.84555 | 13304 ft | 331 kts | 233° |
| 2026-04-22 08:58 | 52.43946 | -8.87724 | 12944 ft | 329 kts | 232° |
| 2026-04-22 08:58 | 52.42708 | -8.90875 | 12586 ft | 327 kts | 232° |
| 2026-04-22 08:59 | 52.41481 | -8.93997 | 12237 ft | 325 kts | 232° |
| 2026-04-22 08:59 | 52.40261 | -8.97095 | 11884 ft | 323 kts | 232° |
| 2026-04-22 08:59 | 52.39046 | -9.00176 | 11539 ft | 321 kts | 231° |
| 2026-04-22 08:59 | 52.37839 | -9.03236 | 11192 ft | 319 kts | 231° |
| 2026-04-22 09:00 | 52.36635 | -9.06284 | 10838 ft | 318 kts | 231° |
| 2026-04-22 09:00 | 52.35444 | -9.09300 | 10635 ft | 311 kts | 231° |
| 2026-04-22 09:00 | 52.34287 | -9.12225 | 10485 ft | 303 kts | 231° |
| 2026-04-22 09:00 | 52.33156 | -9.15079 | 10362 ft | 295 kts | 230° |
| 2026-04-22 09:01 | 52.32047 | -9.17876 | 10114 ft | 292 kts | 230° |
| 2026-04-22 09:01 | 52.30942 | -9.20663 | 9745 ft | 292 kts | 230° |
| 2026-04-22 09:01 | 52.29837 | -9.23443 | 9397 ft | 291 kts | 230° |
| 2026-04-22 09:01 | 52.28738 | -9.26204 | 9079 ft | 290 kts | 230° |
| 2026-04-22 09:02 | 52.27643 | -9.28954 | 8761 ft | 288 kts | 230° |
| 2026-04-22 09:02 | 52.26553 | -9.31689 | 8453 ft | 287 kts | 229° |
| 2026-04-22 09:02 | 52.25465 | -9.34416 | 8128 ft | 286 kts | 229° |
| 2026-04-22 09:02 | 52.24383 | -9.37145 | 7824 ft | 287 kts | 232° |
| 2026-04-22 09:03 | 52.23722 | -9.40302 | 7342 ft | 308 kts | 261° |
| 2026-04-22 09:03 | 52.23769 | -9.43838 | 6901 ft | 313 kts | 264° |
| 2026-04-22 09:03 | 52.23434 | -9.47314 | 6437 ft | 309 kts | 245° |
| 2026-04-22 09:03 | 52.22505 | -9.50377 | 6120 ft | 294 kts | 225° |
| 2026-04-22 09:04 | 52.21619 | -9.51948 | 6069 ft | 276 kts | 211° |
| 2026-04-22 09:04 | 52.20053 | -9.53453 | 6012 ft | 248 kts | 189° |
| 2026-04-22 09:04 | 52.18450 | -9.53827 | 5967 ft | 221 kts | 167° |
| 2026-04-22 09:04 | 52.17040 | -9.53229 | 5929 ft | 204 kts | 149° |
| 2026-04-22 09:05 | 52.15883 | -9.51887 | 5868 ft | 209 kts | 130° |
| 2026-04-22 09:05 | 52.15249 | -9.49769 | 5813 ft | 215 kts | 101° |
| 2026-04-22 09:05 | 52.15443 | -9.47307 | 5761 ft | 228 kts | 77° |
| 2026-04-22 09:05 | 52.16052 | -9.44895 | 5723 ft | 230 kts | 76° |
| 2026-04-22 09:06 | 52.16591 | -9.42535 | 5650 ft | 215 kts | 81° |
| 2026-04-22 09:06 | 52.16921 | -9.40214 | 5424 ft | 205 kts | 85° |
| 2026-04-22 09:06 | 52.17216 | -9.37993 | 5189 ft | 195 kts | 85° |
| 2026-04-22 09:06 | 52.17499 | -9.35876 | 4969 ft | 187 kts | 85° |
| 2026-04-22 09:07 | 52.17780 | -9.33839 | 4715 ft | 182 kts | 85° |
| 2026-04-22 09:07 | 52.18058 | -9.31847 | 4473 ft | 179 kts | 85° |
| 2026-04-22 09:07 | 52.18337 | -9.29900 | 4225 ft | 173 kts | 85° |
| 2026-04-22 09:07 | 52.18607 | -9.28034 | 3983 ft | 169 kts | 85° |
| 2026-04-22 09:08 | 52.19077 | -9.26243 | 3729 ft | 181 kts | 61° |
| 2026-04-22 09:08 | 52.20227 | -9.25160 | 3438 ft | 207 kts | 24° |
| 2026-04-22 09:08 | 52.21711 | -9.25366 | 3144 ft | 224 kts | 346° |
| 2026-04-22 09:08 | 52.22930 | -9.26946 | 3015 ft | 230 kts | 305° |
| 2026-04-22 09:09 | 52.23448 | -9.29344 | 2996 ft | 216 kts | 266° |
| 2026-04-22 09:09 | 52.23127 | -9.31496 | 2914 ft | 181 kts | 221° |
| 2026-04-22 09:09 | 52.22352 | -9.33035 | 2887 ft | 180 kts | 220° |
| 2026-04-22 09:09 | 52.21735 | -9.34865 | 2622 ft | 189 kts | 235° |
| 2026-04-22 09:10 | 52.21302 | -9.36872 | 2291 ft | 185 kts | 243° |
| 2026-04-22 09:10 | 52.20921 | -9.38816 | 1991 ft | 182 kts | 243° |
| 2026-04-22 09:10 | 52.20511 | -9.40793 | 1718 ft | 181 kts | 246° |
| 2026-04-22 09:10 | 52.20112 | -9.42720 | 1395 ft | 179 kts | 245° |
| 2026-04-22 09:11 | 52.19718 | -9.44596 | 1088 ft | 176 kts | 249° |
| 2026-04-22 09:11 | 52.19317 | -9.46465 | 831 ft | 174 kts | 248° |
| 2026-04-22 09:11 | 52.18924 | -9.48330 | 546 ft | 173 kts | 250° |
| 2026-04-22 09:11 | 52.18549 | -9.50180 | 266 ft | 171 kts | 249° |
| 2026-04-22 09:12 | 52.18173 | -9.51982 | 113 ft | 158 kts | 250° |
| 2026-04-22 09:12 | 52.17896 | -9.53301 | 98 ft | 73 kts | 251° |
| 2026-04-22 09:12 | 52.17854 | -9.53546 | 97 ft | 5 kts | 315° |
| 2026-04-22 09:12 | 52.17900 | -9.53574 | 97 ft | 9 kts | 340° |
| 2026-04-22 09:13 | 52.17970 | -9.53610 | 96 ft | 12 kts | 343° |
| 2026-04-22 09:13 | 52.18053 | -9.53671 | 96 ft | 15 kts | 341° |
| 2026-04-22 09:13 | 52.18082 | -9.53677 | 96 ft | 1 kts | 2° |
| 2026-04-22 09:13 | 52.18096 | -9.53653 | 99 ft | 2 kts | 84° |
| 2026-04-22 09:14 | 52.18095 | -9.53648 | 99 ft | 0 kts | 103° |